Sea Carrier — 9V7734 — position and weather

sailwx.info

Track history (hours):
 
Tides and Currents Weather Stations Pressure Air Temp Water Temp Dewpoint Dewpoint Depression Visibility Wind Speed Wind Dir Waves Ship Positions

Sea Carrier

Last reported at 2018-Jun-18 20:06 UTC. Time now 2018-Jun-20 05:21 UTC.
Position N 40°08' W 009°50'.

Length 107 m; draft 8.3 m.

Type: Cargo ship. MMSI: 566837000.

Date/timePositionNaut miles runAvg speedWind from/ knotsBaromVisibWave heightAir tempDewpointWater temp
2018-Jun-18 20:06N 40°08' W 009°50'210.1
2018-Jun-18 19:56N 40°06' W 009°50'710.3
2018-Jun-18 19:13N 39°59' W 009°50'210.4
2018-Jun-18 19:00N 39°57' W 009°50'510.4
2018-Jun-18 18:30N 39°51' W 009°50'510.3
2018-Jun-18 18:00N 39°46' W 009°50'510.5
2018-Jun-18 17:30N 39°41' W 009°50'510.2
2018-Jun-18 17:00N 39°36' W 009°49'5 9.9
2018-Jun-18 16:30N 39°31' W 009°50'5 9.7
2018-Jun-18 16:00N 39°26' W 009°50'5 9.8
2018-Jun-18 15:30N 39°21' W 009°50'510.2
2018-Jun-18 14:58N 39°16' W 009°50'510.4
2018-Jun-18 14:30N 39°11' W 009°50'510.2
2018-Jun-18 14:00N 39°06' W 009°50'510.0
2018-Jun-18 13:30N 39°01' W 009°50'5 9.8
2018-Jun-18 13:00N 38°56' W 009°50'5 9.9
2018-Jun-18 12:30N 38°51' W 009°50'510.1
2018-Jun-18 12:00N 38°46' W 009°50'5 9.6
2018-Jun-18 11:30N 38°41' W 009°50'5 9.1
2018-Jun-18 11:00N 38°37' W 009°48'5 9.4
2018-Jun-18 10:30N 38°32' W 009°47'5 9.5
2018-Jun-18 10:00N 38°27' W 009°45'5 9.4
2018-Jun-18 09:30N 38°23' W 009°44'5 9.5
2018-Jun-18 09:00N 38°18' W 009°43'5 9.5
2018-Jun-18 08:30N 38°14' W 009°41'5 9.5
2018-Jun-18 08:00N 38°09' W 009°40'510.0
2018-Jun-18 07:30N 38°04' W 009°38'510.1
2018-Jun-18 07:00N 37°59' W 009°37'510.3
2018-Jun-18 06:30N 37°54' W 009°36'510.3
2018-Jun-18 06:00N 37°49' W 009°34'510.5
2018-Jun-18 05:30N 37°44' W 009°33'510.5
2018-Jun-18 05:00N 37°39' W 009°31'510.7
2018-Jun-18 04:30N 37°34' W 009°30'510.7
2018-Jun-18 04:00N 37°29' W 009°28'5 9.9
2018-Jun-18 03:30N 37°24' W 009°27'1110.2
2018-Jun-18 02:28N 37°13' W 009°24'510.3
2018-Jun-18 02:00N 37°09' W 009°23'1110.4
2018-Jun-18 00:58N 36°58' W 009°20'1610.0
2018-Jun-17 23:19N 36°45' W 009°07'3 9.9
2018-Jun-17 23:00N 36°44' W 009°03'810.2
2018-Jun-17 22:12N 36°41' W 008°53'210.6
2018-Jun-17 22:00N 36°41' W 008°51'510.8
2018-Jun-17 21:30N 36°39' W 008°45'911.2
2018-Jun-17 20:43N 36°36' W 008°34'910.9
2018-Jun-17 19:52N 36°34' W 008°23'411.3
2018-Jun-17 19:28N 36°32' W 008°18'1210.9
2018-Jun-17 18:20N 36°28' W 008°03'411.1
2018-Jun-17 17:59N 36°27' W 007°59'511.1
2018-Jun-17 17:30N 36°25' W 007°52'10110.9
2018-Jun-17 08:16N 35°58' W 005°52'310.1
2018-Jun-17 08:00N 35°58' W 005°49'5 9.9
2018-Jun-17 07:30N 35°58' W 005°43'5 9.5
2018-Jun-17 07:00N 35°58' W 005°37'510.1
2018-Jun-17 06:30N 35°59' W 005°31'5 9.7
2018-Jun-17 06:00N 36°00' W 005°25'5 9.4
2018-Jun-17 05:30N 36°01' W 005°19'5 9.3
2018-Jun-17 05:00N 36°03' W 005°14'  
2018-Jun-13 23:49N 36°00' W 005°12'514.8
2018-Jun-13 23:30N 35°59' W 005°17'714.3
2018-Jun-13 23:01N 35°58' W 005°26'912.2
2018-Jun-13 22:18N 35°55' W 005°36'1110.3
2018-Jun-13 21:16N 35°55' W 005°49'610.4
2018-Jun-13 20:42N 35°54' W 005°56'  
2018-Jun-09 13:10N 38°23' W 010°03'411.8
2018-Jun-09 12:51N 38°27' W 010°04'412.0
2018-Jun-09 12:29N 38°32' W 010°05'611.9
2018-Jun-09 11:56N 38°38' W 010°06'511.7
2018-Jun-09 11:29N 38°43' W 010°07'611.8
2018-Jun-09 11:00N 38°49' W 010°07'611.7
2018-Jun-09 10:30N 38°55' W 010°07'611.5
2018-Jun-09 10:00N 39°01' W 010°07'  
Track history (hours):
 
Tides and Currents Weather Stations Pressure Air Temp Water Temp Dewpoint Dewpoint Depression Visibility Wind Speed Wind Dir Waves Ship Positions

Sea Carrier

Last reported at 2018-Jun-18 20:06 UTC. Time now 2018-Jun-20 05:21 UTC.
Position N 40°08' W 009°50'.

Length 107 m; draft 8.3 m.

Type: Cargo ship. MMSI: 566837000.

Date/timePositionNaut miles runAvg speedWind from/ knotsBaromVisibWave heightAir tempDewpointWater temp
2018-Jun-18 20:06N 40°08' W 009°50'210.1
2018-Jun-18 19:56N 40°06' W 009°50'710.3
2018-Jun-18 19:13N 39°59' W 009°50'210.4
2018-Jun-18 19:00N 39°57' W 009°50'510.4
2018-Jun-18 18:30N 39°51' W 009°50'510.3
2018-Jun-18 18:00N 39°46' W 009°50'510.5
2018-Jun-18 17:30N 39°41' W 009°50'510.2
2018-Jun-18 17:00N 39°36' W 009°49'5 9.9
2018-Jun-18 16:30N 39°31' W 009°50'5 9.7
2018-Jun-18 16:00N 39°26' W 009°50'5 9.8
2018-Jun-18 15:30N 39°21' W 009°50'510.2
2018-Jun-18 14:58N 39°16' W 009°50'510.4
2018-Jun-18 14:30N 39°11' W 009°50'510.2
2018-Jun-18 14:00N 39°06' W 009°50'510.0
2018-Jun-18 13:30N 39°01' W 009°50'5 9.8
2018-Jun-18 13:00N 38°56' W 009°50'5 9.9
2018-Jun-18 12:30N 38°51' W 009°50'510.1
2018-Jun-18 12:00N 38°46' W 009°50'5 9.6
2018-Jun-18 11:30N 38°41' W 009°50'5 9.1
2018-Jun-18 11:00N 38°37' W 009°48'5 9.4
2018-Jun-18 10:30N 38°32' W 009°47'5 9.5
2018-Jun-18 10:00N 38°27' W 009°45'5 9.4
2018-Jun-18 09:30N 38°23' W 009°44'5 9.5
2018-Jun-18 09:00N 38°18' W 009°43'5 9.5
2018-Jun-18 08:30N 38°14' W 009°41'5 9.5
2018-Jun-18 08:00N 38°09' W 009°40'510.0
2018-Jun-18 07:30N 38°04' W 009°38'510.1
2018-Jun-18 07:00N 37°59' W 009°37'510.3
2018-Jun-18 06:30N 37°54' W 009°36'510.3
2018-Jun-18 06:00N 37°49' W 009°34'510.5
2018-Jun-18 05:30N 37°44' W 009°33'510.5
2018-Jun-18 05:00N 37°39' W 009°31'510.7
2018-Jun-18 04:30N 37°34' W 009°30'510.7
2018-Jun-18 04:00N 37°29' W 009°28'5 9.9
2018-Jun-18 03:30N 37°24' W 009°27'1110.2
2018-Jun-18 02:28N 37°13' W 009°24'510.3
2018-Jun-18 02:00N 37°09' W 009°23'1110.4
2018-Jun-18 00:58N 36°58' W 009°20'1610.0
2018-Jun-17 23:19N 36°45' W 009°07'3 9.9
2018-Jun-17 23:00N 36°44' W 009°03'810.2
2018-Jun-17 22:12N 36°41' W 008°53'210.6
2018-Jun-17 22:00N 36°41' W 008°51'510.8
2018-Jun-17 21:30N 36°39' W 008°45'911.2
2018-Jun-17 20:43N 36°36' W 008°34'910.9
2018-Jun-17 19:52N 36°34' W 008°23'411.3
2018-Jun-17 19:28N 36°32' W 008°18'1210.9
2018-Jun-17 18:20N 36°28' W 008°03'411.1
2018-Jun-17 17:59N 36°27' W 007°59'511.1
2018-Jun-17 17:30N 36°25' W 007°52'10110.9
2018-Jun-17 08:16N 35°58' W 005°52'310.1
2018-Jun-17 08:00N 35°58' W 005°49'5 9.9
2018-Jun-17 07:30N 35°58' W 005°43'5 9.5
2018-Jun-17 07:00N 35°58' W 005°37'510.1
2018-Jun-17 06:30N 35°59' W 005°31'5 9.7
2018-Jun-17 06:00N 36°00' W 005°25'5 9.4
2018-Jun-17 05:30N 36°01' W 005°19'5 9.3
2018-Jun-17 05:00N 36°03' W 005°14'  
2018-Jun-13 23:49N 36°00' W 005°12'514.8
2018-Jun-13 23:30N 35°59' W 005°17'714.3
2018-Jun-13 23:01N 35°58' W 005°26'912.2
2018-Jun-13 22:18N 35°55' W 005°36'1110.3
2018-Jun-13 21:16N 35°55' W 005°49'610.4
2018-Jun-13 20:42N 35°54' W 005°56'  
2018-Jun-09 13:10N 38°23' W 010°03'411.8
2018-Jun-09 12:51N 38°27' W 010°04'412.0
2018-Jun-09 12:29N 38°32' W 010°05'611.9
2018-Jun-09 11:56N 38°38' W 010°06'511.7
2018-Jun-09 11:29N 38°43' W 010°07'611.8
2018-Jun-09 11:00N 38°49' W 010°07'611.7
2018-Jun-09 10:30N 38°55' W 010°07'611.5
2018-Jun-09 10:00N 39°01' W 010°07'  

Dump ship's entire track history